createdAt,value
2023-04-25T00:03:22.822Z,100297.97
2023-04-25T00:08:24.111Z,100286.38
2023-04-25T00:13:31.571Z,100320.09
2023-04-25T00:18:40.078Z,100277.09
2023-04-25T00:23:39.986Z,100274.59
2023-04-25T00:28:45.715Z,100274.63
2023-04-25T00:33:47.172Z,100297.88
2023-04-25T00:38:47.899Z,100303.94
2023-04-25T00:43:53.129Z,100285.56
2023-04-25T00:48:52.438Z,100258.28
2023-04-25T00:53:53.574Z,100298.28
2023-04-25T00:58:56.849Z,100262.72
2023-04-25T01:03:55.883Z,100246.97
2023-04-25T01:08:55.248Z,100236.47
2023-04-25T01:13:55.772Z,100269.75
2023-04-25T01:18:58.131Z,100211.34
2023-04-25T01:23:56.975Z,100207.47
2023-04-25T01:28:59.383Z,100198.78
2023-04-25T01:34:01.706Z,100191.41
2023-04-25T01:39:01.858Z,100165.31
2023-04-25T01:44:02.753Z,100170.16
2023-04-25T01:49:02.530Z,100187.13
2023-04-25T01:54:05.439Z,100154.63
2023-04-25T01:59:03.275Z,100189.16
2023-04-25T02:04:20.310Z,100153.41
2023-04-25T02:09:28.163Z,100150.59
2023-04-25T02:14:32.000Z,100149.50
2023-04-25T02:19:42.890Z,100146.84
2023-04-25T02:24:44.625Z,100124.22
2023-04-25T02:29:44.237Z,100149.69
2023-04-25T02:34:44.621Z,100174.19
2023-04-25T02:39:44.279Z,100150.09
2023-04-25T02:44:45.071Z,100138.09
2023-04-25T02:49:47.312Z,100116.94
2023-04-25T02:54:45.699Z,100144.94
2023-04-25T02:59:47.407Z,100134.00
2023-04-25T03:04:47.541Z,100104.06
2023-04-25T03:09:51.953Z,100111.22
2023-04-25T03:14:54.361Z,100137.44
2023-04-25T03:19:53.150Z,100131.00
2023-04-25T03:25:04.497Z,100147.19
2023-04-25T03:30:04.397Z,100112.69
2023-04-25T03:35:05.182Z,100142.31
2023-04-25T03:40:06.184Z,100130.19
2023-04-25T03:45:26.637Z,100155.06
2023-04-25T03:50:28.886Z,100140.31
2023-04-25T03:55:31.919Z,100161.69
2023-04-25T04:00:32.146Z,100130.44
2023-04-25T04:05:34.064Z,100164.06
2023-04-25T04:10:42.561Z,100166.16
2023-04-25T04:15:46.612Z,100173.03
2023-04-25T04:20:45.637Z,100165.88
2023-04-25T04:25:44.852Z,100147.59
2023-04-25T04:30:58.878Z,100172.44
2023-04-25T04:36:00.270Z,100150.81
2023-04-25T04:41:06.151Z,100187.25
2023-04-25T04:46:29.330Z,100169.13
2023-04-25T04:52:00.738Z,100150.72
2023-04-25T04:57:09.140Z,100152.16
2023-04-25T05:02:24.079Z,100186.28
2023-04-25T05:07:51.698Z,100155.25
2023-04-25T05:13:12.898Z,100153.66
2023-04-25T05:18:33.402Z,100149.63
2023-04-25T05:23:57.122Z,100132.84
2023-04-25T05:29:26.546Z,100180.09
2023-04-25T05:34:48.491Z,100143.34
2023-04-25T05:39:58.048Z,100176.69
2023-04-25T05:45:07.770Z,100156.91
2023-04-25T05:50:30.696Z,100137.28
2023-04-25T05:55:59.652Z,100158.84
2023-04-25T06:01:00.618Z,100154.03
2023-04-25T06:06:02.590Z,100150.75
2023-04-25T06:11:04.253Z,100170.03
2023-04-25T06:16:04.529Z,100152.78
2023-04-25T06:21:03.726Z,100174.31
2023-04-25T06:26:06.665Z,100149.84
2023-04-25T06:31:08.948Z,100162.75
2023-04-25T06:36:07.654Z,100162.66
2023-04-25T06:41:08.360Z,100136.66
2023-04-25T06:46:09.087Z,100135.34
2023-04-25T06:51:18.881Z,100154.03
2023-04-25T06:56:32.090Z,100153.19
2023-04-25T07:01:42.560Z,100169.53
2023-04-25T07:06:48.662Z,100156.28
2023-04-25T07:11:55.502Z,100172.13
2023-04-25T07:16:58.280Z,100157.75
2023-04-25T07:21:59.443Z,100188.31
2023-04-25T07:26:59.388Z,100167.19
2023-04-25T07:32:02.623Z,100165.59
2023-04-25T07:37:02.366Z,100148.38
2023-04-25T07:42:11.409Z,100149.50
2023-04-25T07:47:15.134Z,100173.38
2023-04-25T07:52:13.494Z,100142.94
2023-04-25T07:57:20.412Z,100119.34
2023-04-25T08:02:21.060Z,100140.25
2023-04-25T08:07:21.196Z,100128.44
2023-04-25T08:12:24.167Z,100148.97
2023-04-25T08:17:29.044Z,100122.94
2023-04-25T08:22:29.742Z,100151.16
2023-04-25T08:27:46.344Z,100151.53
2023-04-25T08:32:44.241Z,100148.81
2023-04-25T08:38:02.376Z,100176.28
2023-04-25T08:43:14.433Z,100174.81
2023-04-25T08:48:17.605Z,100169.13
2023-04-25T08:53:36.144Z,100137.72
2023-04-25T08:58:37.587Z,100151.69
2023-04-25T09:03:37.788Z,100147.22
2023-04-25T09:08:38.579Z,100171.00
2023-04-25T09:13:38.757Z,100155.38
2023-04-25T09:19:01.263Z,100131.72
2023-04-25T09:24:01.725Z,100123.25
2023-04-25T09:29:11.900Z,100132.97
2023-04-25T09:34:28.433Z,100117.13
2023-04-25T09:39:32.868Z,100110.94
2023-04-25T09:44:44.419Z,100115.09
2023-04-25T09:49:50.769Z,100149.38
2023-04-25T10:07:15.694Z,100132.44
2023-04-25T10:12:17.969Z,100108.78
2023-04-25T10:17:21.384Z,100120.13
2023-04-25T10:22:25.538Z,100122.38
2023-04-25T10:27:27.115Z,100084.13
2023-04-25T10:32:29.507Z,100071.81
2023-04-25T10:38:01.068Z,100093.09
2023-04-25T10:43:32.979Z,100116.13
2023-04-25T10:48:32.866Z,100081.28
2023-04-25T10:53:35.255Z,100097.50
2023-04-25T10:58:33.617Z,100075.81
2023-04-25T11:03:42.980Z,100104.09
2023-04-25T11:08:53.130Z,100072.06
2023-04-25T11:13:55.158Z,100047.31
2023-04-25T11:18:56.810Z,100052.16
2023-04-25T11:24:02.123Z,100096.06
2023-04-25T11:29:02.890Z,100090.75
2023-04-25T11:34:04.189Z,100065.03
2023-04-25T11:39:07.322Z,100084.63
2023-04-25T11:44:09.711Z,100078.00
2023-04-25T11:49:10.990Z,100062.69
2023-04-25T11:54:10.058Z,100044.75
2023-04-25T11:59:18.777Z,100073.91
2023-04-25T12:04:22.104Z,100081.84
2023-04-25T12:09:22.770Z,100049.75
2023-04-25T12:14:34.475Z,100017.97
2023-04-25T12:19:38.002Z,100051.22
2023-04-25T12:24:40.534Z,100003.81
2023-04-25T12:29:52.730Z,100009.47
2023-04-25T12:34:53.013Z,100007.88
2023-04-25T12:39:54.992Z,100011.44
2023-04-25T12:44:57.422Z,100008.25
2023-04-25T12:50:00.357Z,99967.47
2023-04-25T12:55:01.194Z,99989.69
2023-04-25T13:00:01.906Z,99971.50
2023-04-25T13:05:02.794Z,99963.22
2023-04-25T13:10:04.328Z,99961.94
2023-04-25T13:15:05.935Z,99938.09
2023-04-25T13:20:19.674Z,99980.31
2023-04-25T13:25:20.284Z,99940.00
2023-04-25T13:30:39.002Z,99979.50
2023-04-25T13:36:12.641Z,99960.69
2023-04-25T13:41:22.518Z,99971.78
2023-04-25T13:51:38.070Z,100004.13
2023-04-25T13:56:38.434Z,99947.16
2023-04-25T14:01:40.658Z,99966.16
2023-04-25T14:06:50.613Z,99965.84
2023-04-25T14:11:53.832Z,99957.63
2023-04-25T14:16:57.215Z,99946.03
2023-04-25T14:21:59.120Z,99968.88
2023-04-25T14:26:59.968Z,99926.84
2023-04-25T14:32:04.544Z,99925.69
2023-04-25T14:37:04.034Z,99942.22
2023-04-25T14:42:08.156Z,99942.28
2023-04-25T14:47:08.433Z,99937.88
2023-04-25T14:52:07.482Z,99958.44
2023-04-25T14:57:17.857Z,99964.81
2023-04-25T15:02:31.437Z,100002.47
2023-04-25T15:07:33.622Z,100003.50
2023-04-25T15:12:32.488Z,100013.16
2023-04-25T15:17:37.295Z,100047.00
2023-04-25T15:22:36.746Z,100043.38
2023-04-25T15:27:41.106Z,100048.28
2023-04-25T15:32:43.687Z,100036.63
2023-04-25T15:37:43.008Z,100035.81
2023-04-25T15:42:48.137Z,100042.25
2023-04-25T15:47:57.588Z,100024.88
2023-04-25T15:53:25.326Z,100039.22
2023-04-25T15:58:29.083Z,100031.34
2023-04-25T16:03:36.384Z,100015.00
2023-04-25T16:08:37.653Z,99990.50
2023-04-25T16:13:39.845Z,100010.97
